sensor_id;sensor_type;location;lat;lon;timestamp;pressure;altitude;pressure_sealevel;temperature;humidity
3832;BME280;12460;42.662;23.288;2023-04-28T00:12:18;94748.84;;;9.35;40.96
3832;BME280;12460;42.662;23.288;2023-04-28T00:27:23;94753.84;;;9.21;41.64
3832;BME280;12460;42.662;23.288;2023-04-28T00:42:27;94775.31;;;9.03;41.69
3832;BME280;12460;42.662;23.288;2023-04-28T00:57:33;94766.84;;;8.88;42.20
3832;BME280;12460;42.662;23.288;2023-04-28T01:12:38;94766.19;;;8.67;42.45
3832;BME280;12460;42.662;23.288;2023-04-28T01:27:43;94782.59;;;8.63;42.41
3832;BME280;12460;42.662;23.288;2023-04-28T01:42:48;94776.75;;;8.46;42.01
3832;BME280;12460;42.662;23.288;2023-04-28T01:57:54;94786.06;;;8.41;42.06
3832;BME280;12460;42.662;23.288;2023-04-28T02:13:02;94781.47;;;8.30;42.45
3832;BME280;12460;42.662;23.288;2023-04-28T02:28:07;94789.97;;;8.17;42.90
3832;BME280;12460;42.662;23.288;2023-04-28T02:43:12;94796.47;;;8.12;43.29
3832;BME280;12460;42.662;23.288;2023-04-28T02:58:17;94814.91;;;8.08;43.37
3832;BME280;12460;42.662;23.288;2023-04-28T03:13:22;94819.72;;;8.00;43.63
3832;BME280;12460;42.662;23.288;2023-04-28T03:28:27;94843.06;;;8.02;42.81
3832;BME280;12460;42.662;23.288;2023-04-28T03:43:34;94859.31;;;9.17;40.80
3832;BME280;12460;42.662;23.288;2023-04-28T03:58:48;94867.16;;;14.37;32.76
3832;BME280;12460;42.662;23.288;2023-04-28T04:13:53;94881.81;;;18.21;27.19
3832;BME280;12460;42.662;23.288;2023-04-28T04:28:59;94891.31;;;19.99;24.76
3832;BME280;12460;42.662;23.288;2023-04-28T04:44:04;94883.19;;;20.83;23.66
3832;BME280;12460;42.662;23.288;2023-04-28T04:59:16;94907.41;;;20.68;23.91
3832;BME280;12460;42.662;23.288;2023-04-28T05:14:30;94922.47;;;20.82;23.35
3832;BME280;12460;42.662;23.288;2023-04-28T05:29:35;94926.06;;;21.22;23.29
3832;BME280;12460;42.662;23.288;2023-04-28T05:44:40;94909.97;;;21.28;22.53
3832;BME280;12460;42.662;23.288;2023-04-28T05:59:45;94921.06;;;21.77;22.09
3832;BME280;12460;42.662;23.288;2023-04-28T06:14:50;94922.44;;;22.03;21.56
3832;BME280;12460;42.662;23.288;2023-04-28T06:30:00;94923.78;;;22.29;21.56
3832;BME280;12460;42.662;23.288;2023-04-28T06:45:05;94908.03;;;22.88;20.81
3832;BME280;12460;42.662;23.288;2023-04-28T07:00:12;94916.56;;;23.33;20.56
3832;BME280;12460;42.662;23.288;2023-04-28T07:15:17;94910.41;;;24.21;19.52
3832;BME280;12460;42.662;23.288;2023-04-28T07:30:22;94893.50;;;24.47;19.58
3832;BME280;12460;42.662;23.288;2023-04-28T07:45:29;94892.03;;;25.18;18.82
3832;BME280;12460;42.662;23.288;2023-04-28T08:00:34;94894.72;;;25.51;17.85
3832;BME280;12460;42.662;23.288;2023-04-28T08:15:39;94893.53;;;25.78;18.07
3832;BME280;12460;42.662;23.288;2023-04-28T08:30:44;94885.84;;;26.26;16.90
3832;BME280;12460;42.662;23.288;2023-04-28T08:45:49;94877.78;;;27.11;16.64
3832;BME280;12460;42.662;23.288;2023-04-28T09:00:53;94862.81;;;27.17;17.06
3832;BME280;12460;42.662;23.288;2023-04-28T09:16:02;94849.00;;;27.15;16.98
3832;BME280;12460;42.662;23.288;2023-04-28T09:31:07;94836.66;;;27.62;16.82
3832;BME280;12460;42.662;23.288;2023-04-28T09:46:28;94826.75;;;27.43;16.28
3832;BME280;12460;42.662;23.288;2023-04-28T10:01:36;94798.84;;;27.52;16.45
3832;BME280;12460;42.662;23.288;2023-04-28T10:16:44;94781.97;;;27.70;16.46
3832;BME280;12460;42.662;23.288;2023-04-28T10:32:21;94766.59;;;26.86;15.81
3832;BME280;12460;42.662;23.288;2023-04-28T10:48:22;94754.13;;;26.56;16.95
3832;BME280;12460;42.662;23.288;2023-04-28T11:03:56;94749.84;;;26.57;16.10
3832;BME280;12460;42.662;23.288;2023-04-28T11:19:07;94714.56;;;26.13;17.33
3832;BME280;12460;42.662;23.288;2023-04-28T11:34:18;94712.72;;;25.79;17.25
3832;BME280;12460;42.662;23.288;2023-04-28T11:49:25;94703.13;;;25.31;16.82
3832;BME280;12460;42.662;23.288;2023-04-28T12:04:38;94701.69;;;24.71;17.12
3832;BME280;12460;42.662;23.288;2023-04-28T12:19:44;94683.53;;;24.66;17.93
3832;BME280;12460;42.662;23.288;2023-04-28T12:34:51;94660.81;;;23.80;17.83
3832;BME280;12460;42.662;23.288;2023-04-28T12:49:56;94644.84;;;24.12;18.73
3832;BME280;12460;42.662;23.288;2023-04-28T13:05:00;94634.72;;;23.74;19.38
3832;BME280;12460;42.662;23.288;2023-04-28T13:20:06;94620.34;;;23.04;19.37
3832;BME280;12460;42.662;23.288;2023-04-28T13:35:11;94615.38;;;22.55;20.22
3832;BME280;12460;42.662;23.288;2023-04-28T13:50:16;94607.69;;;21.95;20.51
3832;BME280;12460;42.662;23.288;2023-04-28T14:05:21;94588.16;;;21.45;21.27
3832;BME280;12460;42.662;23.288;2023-04-28T14:20:25;94597.03;;;21.06;21.27
3832;BME280;12460;42.662;23.288;2023-04-28T14:35:31;94572.53;;;20.74;21.50
3832;BME280;12460;42.662;23.288;2023-04-28T14:50:43;94570.03;;;20.53;22.25
3832;BME280;12460;42.662;23.288;2023-04-28T15:05:49;94563.41;;;20.35;22.31
3832;BME280;12460;42.662;23.288;2023-04-28T15:20:55;94568.38;;;20.07;22.75
3832;BME280;12460;42.662;23.288;2023-04-28T15:36:00;94573.22;;;19.77;23.47
3832;BME280;12460;42.662;23.288;2023-04-28T15:51:06;94563.16;;;19.49;23.29
3832;BME280;12460;42.662;23.288;2023-04-28T16:06:10;94545.59;;;19.16;23.86
3832;BME280;12460;42.662;23.288;2023-04-28T16:21:16;94558.78;;;18.59;24.03
3832;BME280;12460;42.662;23.288;2023-04-28T16:36:20;94562.88;;;17.96;24.93
3832;BME280;12460;42.662;23.288;2023-04-28T16:51:25;94564.59;;;17.43;25.42
3832;BME280;12460;42.662;23.288;2023-04-28T17:06:31;94581.22;;;17.02;25.85
3832;BME280;12460;42.662;23.288;2023-04-28T17:21:36;94586.41;;;16.61;26.65
3832;BME280;12460;42.662;23.288;2023-04-28T17:36:40;94602.16;;;16.32;27.64
3832;BME280;12460;42.662;23.288;2023-04-28T17:51:45;94615.72;;;15.91;28.70
3832;BME280;12460;42.662;23.288;2023-04-28T18:06:49;94633.63;;;15.53;29.26
3832;BME280;12460;42.662;23.288;2023-04-28T18:21:54;94656.66;;;15.28;29.50
3832;BME280;12460;42.662;23.288;2023-04-28T18:37:00;94676.13;;;14.94;29.74
3832;BME280;12460;42.662;23.288;2023-04-28T18:52:04;94668.81;;;14.81;30.91
3832;BME280;12460;42.662;23.288;2023-04-28T19:07:09;94686.25;;;14.58;32.73
3832;BME280;12460;42.662;23.288;2023-04-28T19:22:37;94689.94;;;14.32;33.30
3832;BME280;12460;42.662;23.288;2023-04-28T19:37:40;94698.44;;;13.96;33.53
3832;BME280;12460;42.662;23.288;2023-04-28T19:52:45;94676.28;;;13.56;34.65
3832;BME280;12460;42.662;23.288;2023-04-28T20:07:53;94676.47;;;13.32;34.94
3832;BME280;12460;42.662;23.288;2023-04-28T20:22:58;94670.53;;;12.93;36.20
3832;BME280;12460;42.662;23.288;2023-04-28T20:38:03;94671.44;;;12.69;36.57
3832;BME280;12460;42.662;23.288;2023-04-28T20:53:08;94650.44;;;12.45;37.18
3832;BME280;12460;42.662;23.288;2023-04-28T21:08:12;94654.78;;;12.29;39.00
3832;BME280;12460;42.662;23.288;2023-04-28T21:23:15;94657.66;;;12.05;39.59
3832;BME280;12460;42.662;23.288;2023-04-28T21:38:20;94640.03;;;11.79;39.85
3832;BME280;12460;42.662;23.288;2023-04-28T21:53:25;94638.47;;;11.61;39.86
3832;BME280;12460;42.662;23.288;2023-04-28T22:08:30;94645.38;;;11.43;40.95
3832;BME280;12460;42.662;23.288;2023-04-28T22:23:34;94633.53;;;11.20;41.23
3832;BME280;12460;42.662;23.288;2023-04-28T22:38:39;94630.31;;;10.99;41.99
3832;BME280;12460;42.662;23.288;2023-04-28T22:53:44;94613.91;;;10.80;42.47
3832;BME280;12460;42.662;23.288;2023-04-28T23:08:49;94603.81;;;10.77;43.69
3832;BME280;12460;42.662;23.288;2023-04-28T23:23:55;94594.13;;;10.71;43.93
3832;BME280;12460;42.662;23.288;2023-04-28T23:38:59;94581.81;;;10.59;44.57
3832;BME280;12460;42.662;23.288;2023-04-28T23:54:04;94570.41;;;10.49;44.49
